Сообщение об ошибке

  • Warning: ini_set(): Headers already sent. You cannot change the session module's ini settings at this time in drupal_environment_initialize() (line 699 of /home/a/auditpro/2.auditpro.beget.tech/public_html/st/includes/bootstrap.inc).
  • Warning: ini_set(): Headers already sent. You cannot change the session module's ini settings at this time in drupal_environment_initialize() (line 700 of /home/a/auditpro/2.auditpro.beget.tech/public_html/st/includes/bootstrap.inc).
  • Warning: ini_set(): Headers already sent. You cannot change the session module's ini settings at this time in drupal_environment_initialize() (line 701 of /home/a/auditpro/2.auditpro.beget.tech/public_html/st/includes/bootstrap.inc).
  • Warning: ini_set(): Headers already sent. You cannot change the session module's ini settings at this time in drupal_environment_initialize() (line 704 of /home/a/auditpro/2.auditpro.beget.tech/public_html/st/includes/bootstrap.inc).
  • Warning: ini_set(): Headers already sent. You cannot change the session module's ini settings at this time in drupal_environment_initialize() (line 706 of /home/a/auditpro/2.auditpro.beget.tech/public_html/st/includes/bootstrap.inc).
  • Warning: ini_set(): Headers already sent. You cannot change the session module's ini settings at this time in include_once() (line 290 of /home/a/auditpro/2.auditpro.beget.tech/public_html/st/sites/default/settings.php).
  • Warning: ini_set(): Headers already sent. You cannot change the session module's ini settings at this time in include_once() (line 291 of /home/a/auditpro/2.auditpro.beget.tech/public_html/st/sites/default/settings.php).
  • Warning: ini_set(): Headers already sent. You cannot change the session module's ini settings at this time in include_once() (line 299 of /home/a/auditpro/2.auditpro.beget.tech/public_html/st/sites/default/settings.php).
  • Warning: ini_set(): Headers already sent. You cannot change the session module's ini settings at this time in include_once() (line 306 of /home/a/auditpro/2.auditpro.beget.tech/public_html/st/sites/default/settings.php).
  • Warning: ini_set(): Headers already sent. You cannot change the session module's ini settings at this time in drupal_settings_initialize() (line 826 of /home/a/auditpro/2.auditpro.beget.tech/public_html/st/includes/bootstrap.inc).
  • Warning: ini_set(): Headers already sent. You cannot change the session module's ini settings at this time in drupal_settings_initialize() (line 835 of /home/a/auditpro/2.auditpro.beget.tech/public_html/st/includes/bootstrap.inc).
  • Warning: session_name(): Cannot change session name when headers already sent in drupal_settings_initialize() (line 838 of /home/a/auditpro/2.auditpro.beget.tech/public_html/st/includes/bootstrap.inc).

Мантурово

СКИДКИ НА СМАРТФОНЫ!

Карта отелей и гостиниц, располагающихся рядом с аэропортом Мантурово :

Мантурово Костромская область 58° 22' 2.82" N, 44° 47' 45.24" E
Код аэродрома ИКАО
ZA7U
Код аэродрома RU
ЗА7У
Координаты
N58.36745° E044.79590°
Превышение над уровнем моря
120
Основная полоса
08/26
Курс магнитный
081,6/261,6
Длина основной ВПП
602
Ширина основной ВПП
26
Покрытие основной ВПП
Твёрдое (асфальт)
Освещение ВПП
Нет
Тип: 
Аэродром
Класс аэродрома: 
Принадлежность: 
ГА
Статус: 
Недействующий
Сайт: 
E-mail аэродрома: 
kostraviales@mail.ru
Страна: 
Россия
Регион: 
Костромская область
Город: 
Дополнительная информация: 
Оператор: нет данных. Используется местными любителями СЛА. Пригодна к эксплуатации. На ВПП множество мелкой асфальтной крошки.

Скидки на навигаторы!

Найти трансфер

С помощью этой формы Вы можете найти трансфер из аэропорта Мантурово в город, аэропорт или вокзал:

Погода в аэропортах:

Авиационная погода в Толмачево

Регион: 
Погода METAR: 
UNNT 301930Z 24003MPS 9999 -SN OVC008 M10/M12 Q1029 R25/490145 R34/////// NOSIG RMK QFE762/1016
Время наблюдения
2023-01-30T19:30:00Z
Температура C
-10.0
Точка росы
-12.0
Направление ветра
240
Скорость ветра (узлы)
6
Метео видимость
6.21
Облачность
OVC
Нижняя граница облачности (футы)
800
Явления погоды
-SN
Условия полета
IFR
Аэропорт подробнее: 
OVC – сплошная облачность;
-SN – слабый снег;

Авиационная погода в Ургенче

Регион: 
Погода METAR: 
UTNU 301930Z 08004KT 4200 BR NSC 01/M07 Q1018 R31/CLRD70 NOSIG
Время наблюдения
2023-01-30T19:30:00Z
Температура C
1.0
Точка росы
-7.0
Направление ветра
80
Скорость ветра (узлы)
4
Метео видимость
2.61
Облачность
CLR
Нижняя граница облачности (футы)
Явления погоды
BR
Условия полета
IFR
CLR — нет облаков ниже 3000 м
BR – дымка (видимость от 1 до 9 км);

Авиационная погода в Махачкале

Регион: 
Погода METAR: 
URML 301930Z 25002MPS 4200 BR NSC M00/M02 Q1015 R14/01//70 TEMPO 0600 FG BKN001 RMK QFE761/1015
Время наблюдения
2023-01-30T19:30:00Z
Температура C
0.0
Точка росы
-2.0
Направление ветра
250
Скорость ветра (узлы)
4
Метео видимость
2.61
Облачность
CLR
Нижняя граница облачности (футы)
Явления погоды
BR
Условия полета
IFR
Аэропорт подробнее: 
CLR — нет облаков ниже 3000 м
BR – дымка (видимость от 1 до 9 км);

Авиационная погода в Иркутске

Регион: 
Погода METAR: 
UIII 301930Z 29004MPS 7000 -SHSN OVC050CB M10/M12 Q1022 RESHSN R30/490237 NOSIG RMK QFE722/0962
Время наблюдения
2023-01-30T19:30:00Z
Температура C
-10.0
Точка росы
-12.0
Направление ветра
290
Скорость ветра (узлы)
8
Метео видимость
4.35
Облачность
OVC
Нижняя граница облачности (футы)
5000
Явления погоды
-SHSN
Условия полета
MVFR
Аэропорт подробнее: 
OVC – сплошная облачность;
-SHSN - слабый ливневой снег;